sensor_id;sensor_type;location;lat;lon;timestamp;pressure;altitude;pressure_sealevel;temperature;humidity
51147;BME280;37207;53.060;18.726;2023-01-25T00:02:13;102990.29;;;-2.00;89.87
51147;BME280;37207;53.060;18.726;2023-01-25T00:04:39;102992.89;;;-2.01;89.78
51147;BME280;37207;53.060;18.726;2023-01-25T00:07:06;102995.73;;;-2.01;89.74
51147;BME280;37207;53.060;18.726;2023-01-25T00:09:33;102986.91;;;-2.01;89.91
51147;BME280;37207;53.060;18.726;2023-01-25T00:11:59;102981.11;;;-2.01;89.94
51147;BME280;37207;53.060;18.726;2023-01-25T00:14:26;102984.25;;;-2.00;90.35
51147;BME280;37207;53.060;18.726;2023-01-25T00:16:52;102982.04;;;-1.99;90.43
51147;BME280;37207;53.060;18.726;2023-01-25T00:19:19;102981.64;;;-1.99;90.09
51147;BME280;37207;53.060;18.726;2023-01-25T00:21:46;102982.61;;;-1.98;90.32
51147;BME280;37207;53.060;18.726;2023-01-25T00:24:12;102980.13;;;-1.95;90.53
51147;BME280;37207;53.060;18.726;2023-01-25T00:26:40;102980.88;;;-1.94;90.41
51147;BME280;37207;53.060;18.726;2023-01-25T00:29:12;102975.73;;;-1.93;90.39
51147;BME280;37207;53.060;18.726;2023-01-25T00:36:56;102954.30;;;-1.95;90.08
51147;BME280;37207;53.060;18.726;2023-01-25T00:39:25;102949.66;;;-1.95;90.30
51147;BME280;37207;53.060;18.726;2023-01-25T00:41:53;102947.77;;;-1.94;90.36
51147;BME280;37207;53.060;18.726;2023-01-25T00:44:20;102947.34;;;-1.93;90.35
51147;BME280;37207;53.060;18.726;2023-01-25T00:46:47;102947.97;;;-1.92;90.08
51147;BME280;37207;53.060;18.726;2023-01-25T00:49:23;102943.75;;;-1.93;89.98
51147;BME280;37207;53.060;18.726;2023-01-25T00:51:52;102940.86;;;-1.94;90.02
51147;BME280;37207;53.060;18.726;2023-01-25T00:54:19;102938.33;;;-1.93;90.26
51147;BME280;37207;53.060;18.726;2023-01-25T00:56:46;102932.95;;;-1.92;90.49
51147;BME280;37207;53.060;18.726;2023-01-25T00:59:13;102931.97;;;-1.91;90.30
51147;BME280;37207;53.060;18.726;2023-01-25T01:01:41;102924.48;;;-1.91;90.18
51147;BME280;37207;53.060;18.726;2023-01-25T01:04:08;102923.14;;;-1.90;90.47
51147;BME280;37207;53.060;18.726;2023-01-25T01:06:37;102921.77;;;-1.90;90.28
51147;BME280;37207;53.060;18.726;2023-01-25T01:09:05;102921.41;;;-1.89;90.32
51147;BME280;37207;53.060;18.726;2023-01-25T01:11:32;102921.88;;;-1.89;90.44
51147;BME280;37207;53.060;18.726;2023-01-25T01:13:59;102919.94;;;-1.89;90.46
51147;BME280;37207;53.060;18.726;2023-01-25T01:16:26;102918.31;;;-1.89;90.42
51147;BME280;37207;53.060;18.726;2023-01-25T01:18:52;102913.98;;;-1.89;90.32
51147;BME280;37207;53.060;18.726;2023-01-25T01:21:19;102917.48;;;-1.88;90.20
51147;BME280;37207;53.060;18.726;2023-01-25T01:23:46;102916.62;;;-1.89;90.53
51147;BME280;37207;53.060;18.726;2023-01-25T01:26:17;102914.45;;;-1.89;90.22
51147;BME280;37207;53.060;18.726;2023-01-25T01:28:47;102911.20;;;-1.89;90.31
51147;BME280;37207;53.060;18.726;2023-01-25T01:31:17;102906.87;;;-1.89;90.39
51147;BME280;37207;53.060;18.726;2023-01-25T01:33:49;102906.21;;;-1.87;90.39
51147;BME280;37207;53.060;18.726;2023-01-25T01:36:18;102904.84;;;-1.87;90.44
51147;BME280;37207;53.060;18.726;2023-01-25T01:38:46;102906.57;;;-1.86;90.66
51147;BME280;37207;53.060;18.726;2023-01-25T01:41:13;102904.48;;;-1.83;90.74
51147;BME280;37207;53.060;18.726;2023-01-25T01:43:41;102903.06;;;-1.81;90.75
51147;BME280;37207;53.060;18.726;2023-01-25T01:46:16;102899.59;;;-1.81;90.29
51147;BME280;37207;53.060;18.726;2023-01-25T01:48:59;102892.45;;;-1.82;90.39
51147;BME280;37207;53.060;18.726;2023-01-25T01:54:11;102886.79;;;-1.82;90.58
51147;BME280;37207;53.060;18.726;2023-01-25T01:56:51;102882.58;;;-1.80;90.50
51147;BME280;37207;53.060;18.726;2023-01-25T01:59:20;102883.46;;;-1.79;90.86
51147;BME280;37207;53.060;18.726;2023-01-25T02:01:48;102880.35;;;-1.80;90.57
51147;BME280;37207;53.060;18.726;2023-01-25T02:04:17;102876.75;;;-1.81;90.35
51147;BME280;37207;53.060;18.726;2023-01-25T02:07:00;102873.69;;;-1.82;90.52
51147;BME280;37207;53.060;18.726;2023-01-25T02:09:31;102867.84;;;-1.84;90.34
51147;BME280;37207;53.060;18.726;2023-01-25T02:11:59;102863.54;;;-1.85;90.02
51147;BME280;37207;53.060;18.726;2023-01-25T02:14:28;102861.42;;;-1.87;89.86
51147;BME280;37207;53.060;18.726;2023-01-25T02:16:55;102865.21;;;-1.87;90.20
51147;BME280;37207;53.060;18.726;2023-01-25T02:22:45;102859.02;;;-1.86;90.24
51147;BME280;37207;53.060;18.726;2023-01-25T02:25:15;102854.66;;;-1.85;90.11
51147;BME280;37207;53.060;18.726;2023-01-25T02:27:55;102855.49;;;-1.83;90.12
51147;BME280;37207;53.060;18.726;2023-01-25T02:30:23;102861.95;;;-1.79;90.33
51147;BME280;37207;53.060;18.726;2023-01-25T02:32:50;102858.73;;;-1.75;90.50
51147;BME280;37207;53.060;18.726;2023-01-25T02:35:22;102856.83;;;-1.73;90.24
51147;BME280;37207;53.060;18.726;2023-01-25T02:37:50;102856.40;;;-1.71;90.13
51147;BME280;37207;53.060;18.726;2023-01-25T02:40:17;102853.39;;;-1.68;90.59
51147;BME280;37207;53.060;18.726;2023-01-25T02:42:45;102849.92;;;-1.65;90.65
51147;BME280;37207;53.060;18.726;2023-01-25T02:45:15;102844.92;;;-1.64;90.45
51147;BME280;37207;53.060;18.726;2023-01-25T02:47:45;102846.91;;;-1.65;90.16
51147;BME280;37207;53.060;18.726;2023-01-25T02:50:14;102843.15;;;-1.66;90.24
51147;BME280;37207;53.060;18.726;2023-01-25T02:52:41;102845.48;;;-1.66;90.02
51147;BME280;37207;53.060;18.726;2023-01-25T02:55:08;102842.20;;;-1.64;90.24
51147;BME280;37207;53.060;18.726;2023-01-25T02:57:35;102832.56;;;-1.66;90.57
51147;BME280;37207;53.060;18.726;2023-01-25T03:00:03;102828.27;;;-1.67;90.13
51147;BME280;37207;53.060;18.726;2023-01-25T03:02:30;102822.42;;;-1.68;90.17
51147;BME280;37207;53.060;18.726;2023-01-25T03:04:56;102822.73;;;-1.68;90.52
51147;BME280;37207;53.060;18.726;2023-01-25T03:07:23;102814.34;;;-1.67;90.55
51147;BME280;37207;53.060;18.726;2023-01-25T03:09:49;102807.83;;;-1.64;90.63
51147;BME280;37207;53.060;18.726;2023-01-25T03:12:16;102805.21;;;-1.63;90.71
51147;BME280;37207;53.060;18.726;2023-01-25T03:14:44;102802.55;;;-1.62;90.59
51147;BME280;37207;53.060;18.726;2023-01-25T03:17:10;102802.55;;;-1.62;90.60
51147;BME280;37207;53.060;18.726;2023-01-25T03:19:37;102803.00;;;-1.62;90.61
51147;BME280;37207;53.060;18.726;2023-01-25T03:22:04;102802.59;;;-1.63;90.67
51147;BME280;37207;53.060;18.726;2023-01-25T03:24:32;102798.46;;;-1.63;90.63
51147;BME280;37207;53.060;18.726;2023-01-25T03:26:59;102789.70;;;-1.64;90.56
51147;BME280;37207;53.060;18.726;2023-01-25T03:30:09;102788.52;;;-1.65;90.47
51147;BME280;37207;53.060;18.726;2023-01-25T03:32:36;102779.74;;;-1.66;90.47
51147;BME280;37207;53.060;18.726;2023-01-25T03:35:07;102772.31;;;-1.66;90.47
51147;BME280;37207;53.060;18.726;2023-01-25T03:37:34;102770.21;;;-1.66;90.58
51147;BME280;37207;53.060;18.726;2023-01-25T03:40:00;102764.86;;;-1.67;90.73
51147;BME280;37207;53.060;18.726;2023-01-25T03:42:27;102758.23;;;-1.68;90.60
51147;BME280;37207;53.060;18.726;2023-01-25T03:44:56;102751.86;;;-1.69;90.56
51147;BME280;37207;53.060;18.726;2023-01-25T03:47:22;102751.22;;;-1.70;90.44
51147;BME280;37207;53.060;18.726;2023-01-25T03:49:50;102754.74;;;-1.71;90.55
51147;BME280;37207;53.060;18.726;2023-01-25T03:52:18;102755.18;;;-1.73;90.65
51147;BME280;37207;53.060;18.726;2023-01-25T03:54:45;102754.00;;;-1.74;90.75
51147;BME280;37207;53.060;18.726;2023-01-25T03:57:13;102754.31;;;-1.74;90.69
51147;BME280;37207;53.060;18.726;2023-01-25T03:59:52;102751.91;;;-1.74;90.95
51147;BME280;37207;53.060;18.726;2023-01-25T04:02:19;102755.25;;;-1.74;90.71
51147;BME280;37207;53.060;18.726;2023-01-25T04:04:45;102752.44;;;-1.75;90.82
51147;BME280;37207;53.060;18.726;2023-01-25T04:07:12;102750.28;;;-1.78;90.81
51147;BME280;37207;53.060;18.726;2023-01-25T04:09:39;102751.24;;;-1.79;90.73
51147;BME280;37207;53.060;18.726;2023-01-25T04:12:06;102748.42;;;-1.80;90.82
51147;BME280;37207;53.060;18.726;2023-01-25T04:14:33;102748.17;;;-1.81;91.02
51147;BME280;37207;53.060;18.726;2023-01-25T04:17:02;102747.06;;;-1.82;90.83
51147;BME280;37207;53.060;18.726;2023-01-25T04:19:39;102747.89;;;-1.83;90.70
51147;BME280;37207;53.060;18.726;2023-01-25T04:22:09;102744.88;;;-1.86;90.38
51147;BME280;37207;53.060;18.726;2023-01-25T04:24:37;102742.13;;;-1.87;90.70
51147;BME280;37207;53.060;18.726;2023-01-25T04:27:04;102736.94;;;-1.87;90.56
51147;BME280;37207;53.060;18.726;2023-01-25T04:29:35;102736.24;;;-1.87;90.79
51147;BME280;37207;53.060;18.726;2023-01-25T04:32:02;102734.14;;;-1.88;90.71
51147;BME280;37207;53.060;18.726;2023-01-25T04:34:29;102734.53;;;-1.88;90.60
51147;BME280;37207;53.060;18.726;2023-01-25T04:36:55;102733.13;;;-1.88;90.64
51147;BME280;37207;53.060;18.726;2023-01-25T04:39:23;102734.92;;;-1.87;90.94
51147;BME280;37207;53.060;18.726;2023-01-25T04:41:49;102740.26;;;-1.87;90.80
51147;BME280;37207;53.060;18.726;2023-01-25T04:44:16;102744.73;;;-1.88;91.01
51147;BME280;37207;53.060;18.726;2023-01-25T04:46:44;102742.09;;;-1.88;90.71
51147;BME280;37207;53.060;18.726;2023-01-25T04:49:11;102744.16;;;-1.89;90.43
51147;BME280;37207;53.060;18.726;2023-01-25T04:51:37;102741.13;;;-1.90;90.64
51147;BME280;37207;53.060;18.726;2023-01-25T04:54:04;102741.52;;;-1.89;90.79
51147;BME280;37207;53.060;18.726;2023-01-25T04:56:32;102739.98;;;-1.89;90.81
51147;BME280;37207;53.060;18.726;2023-01-25T04:58:58;102742.68;;;-1.89;90.68
51147;BME280;37207;53.060;18.726;2023-01-25T05:01:26;102735.54;;;-1.91;91.01
51147;BME280;37207;53.060;18.726;2023-01-25T05:03:53;102733.73;;;-1.92;90.88
51147;BME280;37207;53.060;18.726;2023-01-25T05:06:28;102734.27;;;-1.93;90.54
51147;BME280;37207;53.060;18.726;2023-01-25T05:08:55;102737.20;;;-1.93;90.89
51147;BME280;37207;53.060;18.726;2023-01-25T05:11:22;102738.86;;;-1.94;90.51
51147;BME280;37207;53.060;18.726;2023-01-25T05:13:54;102733.48;;;-1.96;90.68
51147;BME280;37207;53.060;18.726;2023-01-25T05:16:28;102728.14;;;-1.96;90.63
51147;BME280;37207;53.060;18.726;2023-01-25T05:18:55;102722.54;;;-1.97;90.81
51147;BME280;37207;53.060;18.726;2023-01-25T05:21:24;102721.59;;;-1.97;90.91
51147;BME280;37207;53.060;18.726;2023-01-25T05:24:09;102722.84;;;-1.97;90.54
51147;BME280;37207;53.060;18.726;2023-01-25T05:26:37;102726.47;;;-1.97;90.66
51147;BME280;37207;53.060;18.726;2023-01-25T05:29:22;102719.41;;;-1.98;90.66
51147;BME280;37207;53.060;18.726;2023-01-25T05:31:58;102713.21;;;-2.01;90.58
51147;BME280;37207;53.060;18.726;2023-01-25T05:34:25;102708.58;;;-2.03;90.48
51147;BME280;37207;53.060;18.726;2023-01-25T05:36:52;102708.77;;;-2.05;90.64
51147;BME280;37207;53.060;18.726;2023-01-25T05:39:19;102705.54;;;-2.04;90.71
51147;BME280;37207;53.060;18.726;2023-01-25T05:41:47;102702.76;;;-2.04;91.04
51147;BME280;37207;53.060;18.726;2023-01-25T05:44:15;102699.94;;;-2.05;90.78
51147;BME280;37207;53.060;18.726;2023-01-25T05:46:45;102691.92;;;-2.07;90.79
51147;BME280;37207;53.060;18.726;2023-01-25T05:49:12;102698.04;;;-2.07;90.86
51147;BME280;37207;53.060;18.726;2023-01-25T05:51:39;102691.15;;;-2.08;91.00
51147;BME280;37207;53.060;18.726;2023-01-25T05:54:09;102693.55;;;-2.07;91.18
51147;BME280;37207;53.060;18.726;2023-01-25T05:56:37;102687.70;;;-2.06;90.94
51147;BME280;37207;53.060;18.726;2023-01-25T05:59:04;102689.80;;;-2.05;91.02
51147;BME280;37207;53.060;18.726;2023-01-25T06:01:31;102684.77;;;-2.05;91.22
51147;BME280;37207;53.060;18.726;2023-01-25T06:03:58;102688.52;;;-2.04;91.22
51147;BME280;37207;53.060;18.726;2023-01-25T06:06:25;102687.55;;;-2.05;91.26
51147;BME280;37207;53.060;18.726;2023-01-25T06:08:52;102683.02;;;-2.07;90.66
51147;BME280;37207;53.060;18.726;2023-01-25T06:11:21;102681.19;;;-2.06;91.13
51147;BME280;37207;53.060;18.726;2023-01-25T06:13:49;102681.83;;;-2.06;91.33
51147;BME280;37207;53.060;18.726;2023-01-25T06:16:17;102684.98;;;-2.03;91.08
51147;BME280;37207;53.060;18.726;2023-01-25T06:18:44;102681.14;;;-2.03;91.34
51147;BME280;37207;53.060;18.726;2023-01-25T06:21:17;102681.52;;;-2.03;91.09
51147;BME280;37207;53.060;18.726;2023-01-25T06:23:44;102676.23;;;-2.03;91.02
51147;BME280;37207;53.060;18.726;2023-01-25T06:26:13;102671.57;;;-2.04;90.85
51147;BME280;37207;53.060;18.726;2023-01-25T06:28:40;102672.48;;;-2.05;90.92
51147;BME280;37207;53.060;18.726;2023-01-25T06:31:10;102678.80;;;-2.06;90.99
51147;BME280;37207;53.060;18.726;2023-01-25T06:33:39;102674.31;;;-2.06;90.77
51147;BME280;37207;53.060;18.726;2023-01-25T06:36:10;102673.36;;;-2.07;90.92
51147;BME280;37207;53.060;18.726;2023-01-25T06:38:38;102678.38;;;-2.07;91.06
51147;BME280;37207;53.060;18.726;2023-01-25T06:41:07;102677.77;;;-2.07;91.21
51147;BME280;37207;53.060;18.726;2023-01-25T06:43:35;102685.20;;;-2.07;91.27
51147;BME280;37207;53.060;18.726;2023-01-25T06:46:04;102684.44;;;-2.06;91.24
51147;BME280;37207;53.060;18.726;2023-01-25T06:48:32;102689.52;;;-2.04;91.24
51147;BME280;37207;53.060;18.726;2023-01-25T06:51:01;102687.66;;;-2.04;91.04
51147;BME280;37207;53.060;18.726;2023-01-25T06:53:28;102684.25;;;-2.04;91.27
51147;BME280;37207;53.060;18.726;2023-01-25T06:56:00;102678.79;;;-2.03;91.34
51147;BME280;37207;53.060;18.726;2023-01-25T06:58:28;102671.81;;;-2.04;91.41
51147;BME280;37207;53.060;18.726;2023-01-25T07:01:32;102670.48;;;-2.04;91.19
51147;BME280;37207;53.060;18.726;2023-01-25T07:03:57;102659.39;;;-2.06;91.47
51147;BME280;37207;53.060;18.726;2023-01-25T07:06:25;102663.09;;;-2.06;91.42
51147;BME280;37207;53.060;18.726;2023-01-25T07:08:52;102665.33;;;-2.06;91.30
51147;BME280;37207;53.060;18.726;2023-01-25T07:11:19;102660.45;;;-2.06;91.25
51147;BME280;37207;53.060;18.726;2023-01-25T07:13:46;102656.24;;;-2.04;91.22
51147;BME280;37207;53.060;18.726;2023-01-25T07:16:15;102658.59;;;-2.03;91.40
51147;BME280;37207;53.060;18.726;2023-01-25T07:18:42;102653.11;;;-2.03;91.56
51147;BME280;37207;53.060;18.726;2023-01-25T07:23:38;102642.41;;;-2.01;91.69
51147;BME280;37207;53.060;18.726;2023-01-25T07:26:05;102635.08;;;-2.00;91.50
51147;BME280;37207;53.060;18.726;2023-01-25T07:28:32;102633.31;;;-2.00;91.75
51147;BME280;37207;53.060;18.726;2023-01-25T07:31:05;102633.79;;;-1.99;91.47
51147;BME280;37207;53.060;18.726;2023-01-25T07:33:32;102636.08;;;-1.98;91.55
51147;BME280;37207;53.060;18.726;2023-01-25T07:36:04;102640.98;;;-1.96;91.65
51147;BME280;37207;53.060;18.726;2023-01-25T07:38:32;102635.20;;;-1.95;91.37
51147;BME280;37207;53.060;18.726;2023-01-25T07:40:59;102637.27;;;-1.96;91.14
51147;BME280;37207;53.060;18.726;2023-01-25T07:43:26;102634.00;;;-1.97;91.28
51147;BME280;37207;53.060;18.726;2023-01-25T07:45:53;102631.31;;;-1.96;91.27
51147;BME280;37207;53.060;18.726;2023-01-25T07:48:20;102631.10;;;-1.96;91.38
51147;BME280;37207;53.060;18.726;2023-01-25T07:50:46;102626.94;;;-1.95;91.59
51147;BME280;37207;53.060;18.726;2023-01-25T07:53:16;102628.36;;;-1.94;91.48
51147;BME280;37207;53.060;18.726;2023-01-25T07:55:42;102615.16;;;-1.92;91.57
51147;BME280;37207;53.060;18.726;2023-01-25T07:58:10;102619.92;;;-1.91;91.52
51147;BME280;37207;53.060;18.726;2023-01-25T08:00:37;102620.45;;;-1.91;91.28
51147;BME280;37207;53.060;18.726;2023-01-25T08:03:03;102616.28;;;-1.91;91.48
51147;BME280;37207;53.060;18.726;2023-01-25T08:05:30;102608.15;;;-1.91;91.35
51147;BME280;37207;53.060;18.726;2023-01-25T08:07:56;102598.10;;;-1.90;91.73
51147;BME280;37207;53.060;18.726;2023-01-25T08:10:23;102598.83;;;-1.88;91.57
51147;BME280;37207;53.060;18.726;2023-01-25T08:12:49;102594.94;;;-1.86;91.68
51147;BME280;37207;53.060;18.726;2023-01-25T08:15:16;102590.69;;;-1.86;91.67
51147;BME280;37207;53.060;18.726;2023-01-25T08:17:42;102587.98;;;-1.86;91.68
51147;BME280;37207;53.060;18.726;2023-01-25T08:20:10;102585.56;;;-1.86;91.52
51147;BME280;37207;53.060;18.726;2023-01-25T08:22:37;102587.17;;;-1.87;91.50
51147;BME280;37207;53.060;18.726;2023-01-25T08:25:04;102591.61;;;-1.86;91.86
51147;BME280;37207;53.060;18.726;2023-01-25T08:27:31;102594.23;;;-1.84;91.51
51147;BME280;37207;53.060;18.726;2023-01-25T08:29:57;102593.73;;;-1.82;91.82
51147;BME280;37207;53.060;18.726;2023-01-25T08:32:24;102593.27;;;-1.81;91.51
51147;BME280;37207;53.060;18.726;2023-01-25T08:34:51;102597.79;;;-1.80;91.77
51147;BME280;37207;53.060;18.726;2023-01-25T08:37:18;102602.49;;;-1.81;91.47
51147;BME280;37207;53.060;18.726;2023-01-25T08:39:45;102598.94;;;-1.81;91.57
51147;BME280;37207;53.060;18.726;2023-01-25T08:42:11;102596.38;;;-1.78;91.54
51147;BME280;37207;53.060;18.726;2023-01-25T08:44:38;102592.93;;;-1.77;91.62
51147;BME280;37207;53.060;18.726;2023-01-25T08:47:04;102590.42;;;-1.74;91.58
51147;BME280;37207;53.060;18.726;2023-01-25T08:49:31;102585.83;;;-1.71;91.63
51147;BME280;37207;53.060;18.726;2023-01-25T08:51:59;102582.60;;;-1.67;91.76
51147;BME280;37207;53.060;18.726;2023-01-25T08:54:26;102582.42;;;-1.64;91.64
51147;BME280;37207;53.060;18.726;2023-01-25T08:56:53;102580.42;;;-1.61;91.82
51147;BME280;37207;53.060;18.726;2023-01-25T08:59:19;102584.39;;;-1.56;91.97
51147;BME280;37207;53.060;18.726;2023-01-25T09:01:46;102582.89;;;-1.53;91.83
51147;BME280;37207;53.060;18.726;2023-01-25T09:04:12;102583.97;;;-1.50;91.71
51147;BME280;37207;53.060;18.726;2023-01-25T09:06:39;102586.34;;;-1.45;91.85
51147;BME280;37207;53.060;18.726;2023-01-25T09:09:06;102579.09;;;-1.40;91.84
51147;BME280;37207;53.060;18.726;2023-01-25T09:11:34;102578.60;;;-1.36;91.90
51147;BME280;37207;53.060;18.726;2023-01-25T09:14:03;102574.94;;;-1.34;91.50
51147;BME280;37207;53.060;18.726;2023-01-25T09:16:29;102573.19;;;-1.33;91.34
51147;BME280;37207;53.060;18.726;2023-01-25T09:19:02;102573.21;;;-1.35;91.32
51147;BME280;37207;53.060;18.726;2023-01-25T09:21:29;102572.52;;;-1.35;91.05
51147;BME280;37207;53.060;18.726;2023-01-25T09:23:56;102569.84;;;-1.37;90.95
51147;BME280;37207;53.060;18.726;2023-01-25T09:26:23;102566.11;;;-1.38;91.01
51147;BME280;37207;53.060;18.726;2023-01-25T09:28:52;102564.19;;;-1.37;91.39
51147;BME280;37207;53.060;18.726;2023-01-25T09:31:20;102561.00;;;-1.34;91.30
51147;BME280;37207;53.060;18.726;2023-01-25T09:34:06;102556.89;;;-1.30;91.13
51147;BME280;37207;53.060;18.726;2023-01-25T09:36:34;102550.14;;;-1.27;91.41
51147;BME280;37207;53.060;18.726;2023-01-25T09:39:01;102545.96;;;-1.24;91.75
51147;BME280;37207;53.060;18.726;2023-01-25T09:54:12;102537.42;;;-1.16;91.27
51147;BME280;37207;53.060;18.726;2023-01-25T09:56:42;102534.57;;;-1.16;91.02
51147;BME280;37207;53.060;18.726;2023-01-25T09:59:14;102525.15;;;-1.18;90.74
51147;BME280;37207;53.060;18.726;2023-01-25T10:01:53;102520.91;;;-1.21;90.78
51147;BME280;37207;53.060;18.726;2023-01-25T10:04:28;102519.51;;;-1.21;90.77
51147;BME280;37207;53.060;18.726;2023-01-25T10:07:00;102519.52;;;-1.21;90.84
51147;BME280;37207;53.060;18.726;2023-01-25T10:09:42;102511.91;;;-1.22;90.89
51147;BME280;37207;53.060;18.726;2023-01-25T10:12:17;102512.45;;;-1.20;91.03
51147;BME280;37207;53.060;18.726;2023-01-25T10:14:45;102510.09;;;-1.18;91.12
51147;BME280;37207;53.060;18.726;2023-01-25T10:25:53;102485.05;;;-1.16;91.00
51147;BME280;37207;53.060;18.726;2023-01-25T10:28:30;102484.78;;;-1.14;91.08
51147;BME280;37207;53.060;18.726;2023-01-25T10:33:32;102481.64;;;-1.12;90.74
51147;BME280;37207;53.060;18.726;2023-01-25T10:36:01;102476.77;;;-1.11;90.86
51147;BME280;37207;53.060;18.726;2023-01-25T10:38:37;102474.73;;;-1.09;90.80
51147;BME280;37207;53.060;18.726;2023-01-25T10:43:43;102469.45;;;-1.05;90.78
51147;BME280;37207;53.060;18.726;2023-01-25T10:46:19;102468.95;;;-1.07;90.73
51147;BME280;37207;53.060;18.726;2023-01-25T10:48:47;102462.20;;;-1.08;90.92
51147;BME280;37207;53.060;18.726;2023-01-25T10:51:31;102453.80;;;-1.09;90.64
51147;BME280;37207;53.060;18.726;2023-01-25T10:54:12;102452.15;;;-1.10;90.69
51147;BME280;37207;53.060;18.726;2023-01-25T10:56:40;102452.87;;;-1.09;90.88
51147;BME280;37207;53.060;18.726;2023-01-25T10:59:17;102451.88;;;-1.08;90.70
51147;BME280;37207;53.060;18.726;2023-01-25T11:01:46;102441.27;;;-1.08;91.02
51147;BME280;37207;53.060;18.726;2023-01-25T11:04:41;102434.49;;;-1.05;91.13
51147;BME280;37207;53.060;18.726;2023-01-25T11:07:26;102430.39;;;-1.00;91.20
51147;BME280;37207;53.060;18.726;2023-01-25T11:09:54;102423.62;;;-0.97;91.13
51147;BME280;37207;53.060;18.726;2023-01-25T11:12:20;102420.21;;;-0.96;91.22
51147;BME280;37207;53.060;18.726;2023-01-25T11:14:48;102415.80;;;-0.96;91.27
51147;BME280;37207;53.060;18.726;2023-01-25T11:17:27;102410.05;;;-0.97;90.97
51147;BME280;37207;53.060;18.726;2023-01-25T11:22:50;102402.60;;;-1.01;91.17
51147;BME280;37207;53.060;18.726;2023-01-25T11:25:25;102401.20;;;-1.02;91.12
51147;BME280;37207;53.060;18.726;2023-01-25T11:28:09;102391.43;;;-1.02;91.12
51147;BME280;37207;53.060;18.726;2023-01-25T11:30:36;102384.23;;;-1.02;91.23
51147;BME280;37207;53.060;18.726;2023-01-25T11:33:08;102381.46;;;-1.01;91.19
51147;BME280;37207;53.060;18.726;2023-01-25T11:35:45;102381.39;;;-1.00;91.28
51147;BME280;37207;53.060;18.726;2023-01-25T11:38:18;102375.27;;;-1.01;91.11
51147;BME280;37207;53.060;18.726;2023-01-25T11:41:07;102373.42;;;-1.00;91.15
51147;BME280;37207;53.060;18.726;2023-01-25T11:52:28;102373.15;;;-0.98;91.39
51147;BME280;37207;53.060;18.726;2023-01-25T11:55:16;102367.88;;;-0.98;91.04
51147;BME280;37207;53.060;18.726;2023-01-25T12:00:44;102362.28;;;-0.98;91.25
51147;BME280;37207;53.060;18.726;2023-01-25T12:05:52;102357.48;;;-0.98;91.14
51147;BME280;37207;53.060;18.726;2023-01-25T12:11:06;102354.91;;;-0.99;91.12
51147;BME280;37207;53.060;18.726;2023-01-25T12:27:46;102320.73;;;-0.90;91.22
51147;BME280;37207;53.060;18.726;2023-01-25T12:30:22;102318.44;;;-0.89;91.18
51147;BME280;37207;53.060;18.726;2023-01-25T12:32:54;102308.65;;;-0.89;90.94
51147;BME280;37207;53.060;18.726;2023-01-25T12:35:34;102298.92;;;-0.92;90.90
51147;BME280;37207;53.060;18.726;2023-01-25T12:38:09;102298.02;;;-0.95;90.89
51147;BME280;37207;53.060;18.726;2023-01-25T12:40:55;102289.20;;;-0.98;91.04
51147;BME280;37207;53.060;18.726;2023-01-25T12:43:29;102286.38;;;-1.00;91.21
51147;BME280;37207;53.060;18.726;2023-01-25T12:45:58;102278.84;;;-1.01;91.05
51147;BME280;37207;53.060;18.726;2023-01-25T12:48:33;102272.08;;;-1.03;90.98
51147;BME280;37207;53.060;18.726;2023-01-25T12:51:02;102273.23;;;-1.04;90.99
51147;BME280;37207;53.060;18.726;2023-01-25T12:53:35;102269.49;;;-1.07;91.12
51147;BME280;37207;53.060;18.726;2023-01-25T12:56:05;102267.43;;;-1.09;90.97
51147;BME280;37207;53.060;18.726;2023-01-25T12:58:43;102263.61;;;-1.11;91.05
51147;BME280;37207;53.060;18.726;2023-01-25T13:01:36;102260.42;;;-1.12;91.18
51147;BME280;37207;53.060;18.726;2023-01-25T13:04:39;102257.42;;;-1.10;91.24
51147;BME280;37207;53.060;18.726;2023-01-25T13:07:38;102258.95;;;-1.11;91.37
51147;BME280;37207;53.060;18.726;2023-01-25T13:10:19;102255.50;;;-1.14;91.13
51147;BME280;37207;53.060;18.726;2023-01-25T13:12:55;102251.84;;;-1.16;91.26
51147;BME280;37207;53.060;18.726;2023-01-25T13:15:41;102246.55;;;-1.16;91.14
51147;BME280;37207;53.060;18.726;2023-01-25T13:20:57;102234.55;;;-1.20;91.19
51147;BME280;37207;53.060;18.726;2023-01-25T13:23:43;102232.71;;;-1.20;91.16
51147;BME280;37207;53.060;18.726;2023-01-25T13:28:48;102220.88;;;-1.18;91.10
51147;BME280;37207;53.060;18.726;2023-01-25T13:34:12;102206.10;;;-1.16;91.16
51147;BME280;37207;53.060;18.726;2023-01-25T13:42:16;102187.48;;;-1.19;91.28
51147;BME280;37207;53.060;18.726;2023-01-25T13:44:46;102181.14;;;-1.17;91.50
51147;BME280;37207;53.060;18.726;2023-01-25T13:47:16;102170.68;;;-1.17;91.31
51147;BME280;37207;53.060;18.726;2023-01-25T13:49:49;102169.15;;;-1.17;91.41
51147;BME280;37207;53.060;18.726;2023-01-25T13:52:20;102168.70;;;-1.16;91.25
51147;BME280;37207;53.060;18.726;2023-01-25T13:54:48;102174.30;;;-1.14;91.48
51147;BME280;37207;53.060;18.726;2023-01-25T13:57:22;102167.27;;;-1.13;91.05
51147;BME280;37207;53.060;18.726;2023-01-25T14:00:01;102168.04;;;-1.13;91.13
51147;BME280;37207;53.060;18.726;2023-01-25T14:02:31;102170.13;;;-1.13;91.22
51147;BME280;37207;53.060;18.726;2023-01-25T14:04:59;102170.84;;;-1.13;91.12
51147;BME280;37207;53.060;18.726;2023-01-25T14:07:32;102168.73;;;-1.14;91.11
51147;BME280;37207;53.060;18.726;2023-01-25T14:10:02;102160.56;;;-1.15;91.21
51147;BME280;37207;53.060;18.726;2023-01-25T14:12:41;102159.78;;;-1.16;91.21
51147;BME280;37207;53.060;18.726;2023-01-25T14:15:24;102158.08;;;-1.16;91.44
51147;BME280;37207;53.060;18.726;2023-01-25T14:18:11;102148.00;;;-1.16;91.30
51147;BME280;37207;53.060;18.726;2023-01-25T14:20:40;102143.04;;;-1.17;91.52
51147;BME280;37207;53.060;18.726;2023-01-25T14:25:48;102136.94;;;-1.20;91.14
51147;BME280;37207;53.060;18.726;2023-01-25T14:28:16;102136.55;;;-1.20;91.22